Time;durP1;ratioP1;P1;durP2;ratioP2;P2;SDS_P1;SDS_P2;PMS_P1;PMS_P2;Temp;Humidity;BMP_temperature;BMP_pressure;BME280_temperature;BME280_humidity;BME280_pressure;Samples;Min_cycle;Max_cycle;Signal;HPM_P1;HPM_P2
2023/02/07 00:02:26;;;;;;;14.97;13.37;;;-0.50;99.90;;;0.05;88.47;99818.97;5229976;28;20287;-86
2023/02/07 00:05:01;;;;;;;14.90;13.37;;;-0.50;99.90;;;-0.27;88.74;99820.72;5221120;28;20213;-86
2023/02/07 00:07:34;;;;;;;15.67;13.97;;;-0.60;99.90;;;-0.22;89.53;99832.28;5224855;28;20319;-85
2023/02/07 00:10:09;;;;;;;14.67;13.10;;;-0.60;99.90;;;-0.28;87.91;99823.94;5230460;28;20223;-84
2023/02/07 00:12:42;;;;;;;15.17;13.60;;;-0.60;99.90;;;-0.47;89.04;99816.50;5229610;28;20306;-85
2023/02/07 00:15:15;;;;;;;15.87;13.60;;;-0.70;99.90;;;-0.20;87.41;99818.31;5230946;28;20197;-84
2023/02/07 00:17:48;;;;;;;15.93;14.23;;;-0.50;99.90;;;-0.55;89.62;99821.22;5230259;28;20204;-85
2023/02/07 00:20:24;;;;;;;18.23;14.00;;;-0.80;99.90;;;-0.58;89.56;99819.22;5227166;28;20250;-84
2023/02/07 00:22:57;;;;;;;15.70;14.00;;;-0.90;99.90;;;-0.73;89.56;99800.53;5229841;28;20299;-82
2023/02/07 00:25:30;;;;;;;16.90;15.10;;;-1.00;99.90;;;-0.66;91.19;99802.25;5223637;28;20897;-82
2023/02/07 00:28:03;;;;;;;16.00;14.30;;;-1.00;99.90;;;-0.78;91.48;99813.19;5231156;28;20239;-85
2023/02/07 00:30:36;;;;;;;18.77;15.17;;;-1.00;99.90;;;-0.68;90.44;99811.19;5226832;28;20257;-84
2023/02/07 00:33:09;;;;;;;15.93;14.17;;;-1.00;99.90;;;-0.80;91.41;99807.06;5225019;28;20348;-84
2023/02/07 00:35:44;;;;;;;17.17;15.33;;;-1.10;99.90;;;-0.84;91.95;99813.28;5230526;28;20214;-85
2023/02/07 00:38:17;;;;;;;17.50;15.00;;;-1.20;99.90;;;-0.82;92.48;99821.94;5232463;28;20203;-83
2023/02/07 00:40:50;;;;;;;17.23;15.27;;;-1.20;99.90;;;-0.93;93.38;99823.00;5231909;28;20219;-85
2023/02/07 00:43:23;;;;;;;20.47;15.30;;;-1.30;99.90;;;-1.07;94.22;99817.75;5227304;28;20221;-85
2023/02/07 00:46:04;;;;;;;16.50;13.87;;;-1.30;99.90;;;-0.91;93.88;99816.59;5229103;28;20202;-85
2023/02/07 00:48:39;;;;;;;17.87;15.17;;;-1.30;99.90;;;-1.01;93.38;99816.06;5225470;28;20305;-83
2023/02/07 00:51:14;;;;;;;16.73;15.00;;;-1.30;99.90;;;-0.83;93.87;99816.69;5227364;28;20260;-84
2023/02/07 00:53:47;;;;;;;16.37;14.57;;;-1.30;99.90;;;-1.06;93.59;99829.63;5224635;28;20226;-85
2023/02/07 00:56:21;;;;;;;16.60;14.87;;;-1.40;99.90;;;-1.08;94.20;99835.13;5225360;28;20240;-84
2023/02/07 00:58:54;;;;;;;18.93;15.43;;;-1.40;99.90;;;-1.24;94.60;99835.56;5224891;28;20201;-84
2023/02/07 01:01:28;;;;;;;18.80;16.50;;;-1.50;99.90;;;-1.27;94.97;99829.25;5226316;28;20283;-85
2023/02/07 01:04:01;;;;;;;18.43;16.10;;;-1.50;99.90;;;-1.33;95.29;99833.44;5230184;28;20227;-84
2023/02/07 01:06:35;;;;;;;18.57;16.00;;;-1.60;99.90;;;-0.81;92.83;99815.28;5227906;28;20223;-84
2023/02/07 01:09:10;;;;;;;19.10;15.83;;;-1.20;99.90;;;-0.70;90.43;99813.50;5225306;28;20203;-82
2023/02/07 01:11:43;;;;;;;17.80;15.63;;;-1.00;99.90;;;-0.91;90.64;99806.56;5229076;28;20716;-85
2023/02/07 01:14:16;;;;;;;18.70;16.57;;;-1.20;99.90;;;-0.96;92.08;99804.13;5232726;28;20244;-84
2023/02/07 01:16:49;;;;;;;19.03;15.97;;;-1.30;99.90;;;-1.15;91.77;99808.31;5229344;28;20198;-85
2023/02/07 01:19:22;;;;;;;20.30;17.63;;;-1.40;99.90;;;-1.37;93.33;99807.97;5223876;28;20220;-81
2023/02/07 01:21:58;;;;;;;20.10;17.80;;;-1.60;99.90;;;-1.37;92.84;99818.00;5226684;28;20226;-86
2023/02/07 01:24:34;;;;;;;19.90;16.37;;;-1.60;99.90;;;-1.47;94.32;99814.94;5219001;28;20201;-84
2023/02/07 01:27:07;;;;;;;19.87;17.03;;;-1.60;99.90;;;-1.50;93.16;99809.50;5225767;28;20225;-84
2023/02/07 01:29:40;;;;;;;20.43;16.73;;;-1.70;99.90;;;-1.37;94.20;99815.47;5228101;28;20265;-85
2023/02/07 01:32:13;;;;;;;19.43;17.37;;;-1.70;99.90;;;-1.43;93.34;99827.19;5224118;28;20205;-85
2023/02/07 01:34:46;;;;;;;20.17;17.87;;;-1.70;99.90;;;-1.41;93.79;99829.88;5231147;28;20325;-85
2023/02/07 01:37:21;;;;;;;20.37;17.80;;;-1.80;99.90;;;-1.56;94.30;99842.88;5228675;28;20192;-84
2023/02/07 01:39:54;;;;;;;22.40;17.70;;;-1.80;99.90;;;-1.62;95.12;99837.94;5231755;28;20196;-85
2023/02/07 01:42:28;;;;;;;21.40;17.40;;;-1.80;99.90;;;-1.61;95.38;99865.69;5231562;28;20235;-84
2023/02/07 01:45:13;;;;;;;20.97;17.63;;;-1.90;99.90;;;-1.58;94.18;99863.59;5234883;28;20218;-82
2023/02/07 01:47:46;;;;;;;21.17;18.37;;;-1.80;99.90;;;-1.69;94.94;99870.38;5220798;28;20201;-83
2023/02/07 01:50:20;;;;;;;20.83;17.57;;;-1.90;99.90;;;-1.78;94.49;99859.09;5222860;28;20239;-84
2023/02/07 01:52:55;;;;;;;19.23;16.93;;;-2.00;99.90;;;-1.79;94.06;99853.19;5227484;28;20218;-85
2023/02/07 01:55:34;;;;;;;20.30;18.20;;;-2.00;99.90;;;-1.93;95.13;99848.78;5230130;28;20291;-85
2023/02/07 01:58:08;;;;;;;21.80;17.10;;;-2.00;99.90;;;-1.64;92.83;99850.25;5231443;28;20283;-86
2023/02/07 02:00:41;;;;;;;23.10;17.43;;;-1.90;99.90;;;-1.59;93.50;99848.38;5225894;28;20265;-86
2023/02/07 02:03:15;;;;;;;21.87;17.97;;;-1.90;99.90;;;-1.81;94.03;99847.06;5223416;28;20235;-83
2023/02/07 02:05:53;;;;;;;19.67;17.57;;;-2.00;99.90;;;-1.59;90.88;99859.31;5229528;28;20208;-84
2023/02/07 02:08:27;;;;;;;20.53;17.67;;;-1.90;99.90;;;-1.78;92.04;99854.09;5227076;28;20236;-84
2023/02/07 02:11:22;;;;;;;22.00;17.83;;;-2.00;99.90;;;-1.70;91.67;99853.53;5229970;28;20643;-84
2023/02/07 02:14:05;;;;;;;20.27;18.00;;;-2.00;99.90;;;-2.00;92.56;99843.66;5226109;28;20217;-84
2023/02/07 02:16:43;;;;;;;20.43;17.83;;;-2.00;99.90;;;-2.04;92.57;99838.91;5227077;28;20244;-82
2023/02/07 02:19:50;;;;;;;20.67;18.57;;;-2.10;99.90;;;-1.88;92.49;99827.78;5227566;28;20205;-84
2023/02/07 02:22:59;;;;;;;21.77;18.70;;;-2.10;99.90;;;-1.84;91.48;99840.00;5229239;28;20260;-86
2023/02/07 02:26:30;;;;;;;21.17;17.90;;;-2.10;99.90;;;-2.07;91.43;99826.84;5226091;28;20197;-85
2023/02/07 02:29:59;;;;;;;20.77;18.60;;;-2.20;99.90;;;-1.78;91.22;99826.53;5214563;28;20224;-85
2023/02/07 02:33:25;;;;;;;21.27;18.30;;;-2.10;99.90;;;-1.95;91.81;99820.09;5220515;28;20222;-86
2023/02/07 02:36:10;;;;;;;23.60;18.40;;;-2.20;99.90;;;-2.16;91.08;99818.09;5205510;28;20208;-84
2023/02/07 02:38:50;;;;;;;20.43;17.73;;;-2.30;99.90;;;-2.02;91.37;99817.47;5230877;28;20457;-85
2023/02/07 02:41:29;;;;;;;25.40;19.70;;;-2.30;99.90;;;-1.99;90.53;99814.50;5223652;28;22253;-85
2023/02/07 02:44:08;;;;;;;23.67;19.53;;;-2.30;99.90;;;-2.10;92.47;99823.94;5224711;28;20228;-84
2023/02/07 02:46:42;;;;;;;23.10;18.83;;;-2.40;99.90;;;-2.29;92.69;99820.50;5226982;28;20268;-85
2023/02/07 02:49:18;;;;;;;22.00;18.17;;;-2.40;99.90;;;-2.25;93.39;99813.41;5226955;28;20228;-85
2023/02/07 02:51:52;;;;;;;21.10;18.20;;;-2.50;99.90;;;-2.35;93.24;99813.72;5225449;28;20283;-85
2023/02/07 02:54:28;;;;;;;22.60;18.93;;;-2.60;99.90;;;-2.46;93.05;99824.78;5227602;28;20189;-85
2023/02/07 02:57:32;;;;;;;22.07;18.80;;;-2.60;99.90;;;-2.15;92.14;99831.50;5223942;28;20201;-83
2023/02/07 03:00:30;;;;;;;21.67;19.00;;;-2.50;99.90;;;-2.22;92.18;99831.38;5229205;28;20205;-82
2023/02/07 03:03:18;;;;;;;23.63;18.63;;;-2.50;99.90;;;-2.12;90.74;99844.44;5228163;28;20430;-85
2023/02/07 03:06:07;;;;;;;24.03;19.10;;;-2.40;99.90;;;-2.08;89.95;99841.69;5228428;28;20201;-84
2023/02/07 03:08:46;;;;;;;19.47;17.43;;;-2.40;99.90;;;-2.13;90.29;99835.13;5216958;28;20229;-83
2023/02/07 03:11:22;;;;;;;21.17;18.30;;;-2.50;99.90;;;-2.33;91.96;99828.28;5227055;28;20201;-84
2023/02/07 03:14:03;;;;;;;20.77;18.13;;;-2.60;99.90;;;-2.30;92.20;99828.69;5225061;28;20280;-85
2023/02/07 03:16:54;;;;;;;21.73;17.97;;;-2.60;99.90;;;-2.37;91.53;99816.03;5228264;28;20201;-83
2023/02/07 03:19:33;;;;;;;24.60;18.07;;;-2.60;99.90;;;-2.42;90.87;99822.00;5229739;28;20220;-84
2023/02/07 03:22:12;;;;;;;22.77;18.63;;;-2.60;99.90;;;-2.34;91.73;99821.47;5223794;28;20269;-84
2023/02/07 03:24:51;;;;;;;20.83;18.33;;;-2.60;99.90;;;-2.58;91.84;99826.47;5218729;28;20217;-85
2023/02/07 03:27:28;;;;;;;20.80;17.73;;;-2.70;99.90;;;-2.66;92.48;99827.03;5226931;28;20197;-83
2023/02/07 03:30:06;;;;;;;21.50;19.30;;;-2.70;99.90;;;-2.55;92.05;99836.94;5226827;28;20195;-85
2023/02/07 03:32:44;;;;;;;21.53;18.83;;;-2.70;99.90;;;-2.49;92.06;99834.34;5229661;28;20243;-84
2023/02/07 03:35:24;;;;;;;22.83;18.00;;;-2.70;99.90;;;-2.51;92.32;99841.66;5230741;28;20270;-84
2023/02/07 03:38:01;;;;;;;22.13;18.00;;;-2.70;99.90;;;-2.29;91.23;99837.09;5230021;28;20288;-84
2023/02/07 03:40:41;;;;;;;23.83;18.70;;;-2.70;99.90;;;-2.38;91.31;99836.75;5220091;28;20920;-84
2023/02/07 03:43:18;;;;;;;21.10;18.17;;;-2.70;99.90;;;-2.64;90.56;99838.13;5224930;28;20221;-84
2023/02/07 03:45:51;;;;;;;21.97;18.10;;;-2.80;99.90;;;-2.54;90.97;99837.84;5228846;28;20291;-85
2023/02/07 03:48:25;;;;;;;20.47;17.90;;;-2.70;99.90;;;-2.37;88.80;99836.06;5222834;28;20217;-83
2023/02/07 03:50:58;;;;;;;21.33;17.43;;;-2.70;99.90;;;-2.17;88.40;99830.41;5227572;28;20257;-84
2023/02/07 03:53:33;;;;;;;20.47;18.00;;;-2.60;99.90;;;-2.21;88.10;99833.16;5217676;28;20299;-81
2023/02/07 03:56:06;;;;;;;21.00;18.80;;;-2.60;99.90;;;-2.19;87.14;99827.69;5223961;28;20295;-84
2023/02/07 03:58:40;;;;;;;20.70;17.37;;;-2.60;99.90;;;-2.17;88.16;99822.91;5226004;28;20207;-85
2023/02/07 04:01:13;;;;;;;20.63;18.37;;;-2.60;99.90;;;-2.18;87.59;99821.97;5224896;28;20650;-83
2023/02/07 04:03:46;;;;;;;21.17;16.77;;;-2.60;99.90;;;-2.11;88.35;99813.72;5226648;28;20682;-85
2023/02/07 04:06:19;;;;;;;19.10;16.70;;;-2.60;99.90;;;-2.26;87.32;99805.00;5218149;28;20213;-84
2023/02/07 04:08:53;;;;;;;20.83;18.10;;;-2.60;99.90;;;-2.46;87.15;99794.75;5227942;28;20229;-84
2023/02/07 04:11:26;;;;;;;18.63;16.67;;;-2.70;99.90;;;-2.19;85.79;99776.69;5226680;28;20939;-82
2023/02/07 04:14:00;;;;;;;19.67;16.13;;;-2.50;99.90;;;-2.20;85.72;99769.84;5222417;28;20316;-84
2023/02/07 04:16:33;;;;;;;18.30;15.87;;;-2.50;99.90;;;-2.04;86.10;99783.78;5224749;28;20217;-81
2023/02/07 04:19:06;;;;;;;18.07;16.17;;;-2.40;99.90;;;-2.28;85.49;99784.75;5227373;28;20197;-83
2023/02/07 04:21:39;;;;;;;17.83;15.93;;;-2.50;99.90;;;-2.09;84.06;99798.22;5225560;28;20207;-83
2023/02/07 04:24:14;;;;;;;17.50;15.37;;;-2.40;99.90;;;-2.23;84.78;99800.41;5224235;28;20647;-84
2023/02/07 04:26:47;;;;;;;17.47;15.57;;;-2.50;99.90;;;-2.28;83.91;99796.38;5224087;28;20283;-84
2023/02/07 04:29:20;;;;;;;16.77;14.97;;;-2.60;99.90;;;-2.23;84.61;99805.44;5223938;28;20216;-83
2023/02/07 04:31:53;;;;;;;18.57;15.03;;;-2.50;99.90;;;-2.32;84.70;99805.06;5214003;28;20209;-84
2023/02/07 04:34:29;;;;;;;19.13;15.43;;;-2.60;99.90;;;-2.24;86.98;99808.59;5216740;28;20201;-83
2023/02/07 04:37:02;;;;;;;16.13;14.43;;;-2.60;99.90;;;-2.18;87.53;99806.03;5222400;28;20208;-84
2023/02/07 04:39:37;;;;;;;18.20;16.30;;;-2.60;99.90;;;-2.19;87.12;99812.66;5223494;28;20572;-84
2023/02/07 04:42:10;;;;;;;19.23;16.23;;;-2.60;99.90;;;-2.14;89.19;99800.78;5223999;28;20209;-84
2023/02/07 04:44:43;;;;;;;19.47;17.43;;;-2.60;99.90;;;-2.06;88.81;99802.69;5221626;28;20196;-84
2023/02/07 04:47:16;;;;;;;18.63;16.63;;;-2.60;99.90;;;-2.05;87.08;99802.03;5224917;28;20308;-85
2023/02/07 04:49:49;;;;;;;18.70;16.47;;;-2.60;99.90;;;-2.12;85.86;99799.34;5222859;28;20229;-84
2023/02/07 04:52:22;;;;;;;17.73;14.70;;;-2.60;99.90;;;-2.25;87.00;99800.91;5226664;28;20325;-83
2023/02/07 04:54:56;;;;;;;16.17;14.47;;;-2.70;99.90;;;-2.12;87.68;99804.38;5221243;28;20301;-85
2023/02/07 04:57:30;;;;;;;17.93;14.83;;;-2.60;99.90;;;-2.23;86.74;99804.50;5218645;28;20863;-84
2023/02/07 05:00:04;;;;;;;15.07;13.57;;;-2.70;99.90;;;-2.49;85.36;99799.31;5218136;28;21044;-81
2023/02/07 05:02:37;;;;;;;15.67;14.07;;;-2.80;99.90;;;-2.78;85.11;99798.66;5223291;28;20222;-84
2023/02/07 05:05:11;;;;;;;15.33;13.73;;;-3.00;99.90;;;-2.76;86.29;99797.31;5218984;28;20209;-83
2023/02/07 05:07:44;;;;;;;15.17;13.57;;;-3.00;99.90;;;-2.90;86.69;99794.47;5223104;28;20293;-83
2023/02/07 05:10:19;;;;;;;16.37;13.50;;;-3.10;99.90;;;-2.61;84.92;99810.13;5218217;28;20220;-83
2023/02/07 05:12:53;;;;;;;15.30;12.73;;;-2.90;99.90;;;-2.32;84.45;99807.56;5206040;28;20743;-83
2023/02/07 05:15:26;;;;;;;13.87;12.47;;;-2.80;99.90;;;-2.19;83.32;99811.75;5222685;28;20209;-83
2023/02/07 05:18:00;;;;;;;16.70;13.43;;;-2.80;99.90;;;-2.19;82.97;99807.66;5226707;28;20205;-83
2023/02/07 05:20:33;;;;;;;15.73;12.80;;;-2.70;99.90;;;-2.33;81.83;99795.72;5225345;28;20189;-83
2023/02/07 05:23:06;;;;;;;14.40;12.63;;;-2.80;99.90;;;-2.17;82.38;99801.25;5218338;28;20300;-83
2023/02/07 05:25:41;;;;;;;14.37;12.83;;;-2.60;99.90;;;-2.29;82.17;99809.56;5227178;28;20212;-83
2023/02/07 05:28:15;;;;;;;13.47;12.07;;;-2.70;99.90;;;-2.37;82.64;99825.16;5227929;28;20205;-83
2023/02/07 05:30:48;;;;;;;14.33;12.30;;;-2.80;99.90;;;-2.42;82.81;99824.50;5229349;28;20220;-80
2023/02/07 05:33:21;;;;;;;15.53;13.13;;;-2.80;99.90;;;-2.31;84.25;99826.91;5226757;28;20223;-84
2023/02/07 05:35:54;;;;;;;13.40;12.13;;;-2.80;99.90;;;-2.46;81.27;99823.84;5224584;28;20570;-81
2023/02/07 05:38:27;;;;;;;14.37;12.87;;;-2.80;99.90;;;-2.44;82.30;99818.38;5225827;28;20209;-83
2023/02/07 05:41:01;;;;;;;13.67;12.23;;;-2.80;99.90;;;-2.27;81.38;99824.09;5227147;28;20190;-83
2023/02/07 05:43:34;;;;;;;17.53;15.73;;;-2.70;99.90;;;-2.38;83.48;99814.22;5226551;28;20231;-83
2023/02/07 05:46:07;;;;;;;16.00;14.40;;;-2.70;99.90;;;-2.47;85.10;99827.97;5224198;28;20316;-83
2023/02/07 05:48:41;;;;;;;16.60;14.87;;;-2.80;99.90;;;-2.52;87.08;99834.84;5227523;28;20214;-84
2023/02/07 05:51:14;;;;;;;16.80;14.90;;;-2.90;99.90;;;-2.57;87.62;99824.91;5229540;28;20571;-83
2023/02/07 05:53:47;;;;;;;15.07;13.53;;;-3.00;99.90;;;-2.61;88.62;99822.66;5220830;28;20228;-84
2023/02/07 05:56:22;;;;;;;16.90;14.10;;;-3.00;99.90;;;-2.66;88.14;99823.59;5225653;28;20641;-85
2023/02/07 05:58:55;;;;;;;20.00;15.83;;;-3.10;99.90;;;-2.90;88.47;99826.09;5223854;28;20207;-83
2023/02/07 06:01:28;;;;;;;19.87;17.20;;;-3.30;99.90;;;-2.86;90.09;99819.25;5226132;28;20206;-84
2023/02/07 06:04:01;;;;;;;19.17;16.47;;;-3.30;99.90;;;-2.86;89.92;99818.31;5218726;28;20225;-83
2023/02/07 06:06:34;;;;;;;21.20;16.50;;;-3.30;99.90;;;-2.98;87.84;99812.50;5225258;28;20201;-85
2023/02/07 06:09:07;;;;;;;49.63;28.07;;;-3.40;99.90;;;-3.03;88.20;99809.38;5218789;28;20264;-85
2023/02/07 06:11:42;;;;;;;29.73;20.27;;;-3.50;99.90;;;-3.10;88.66;99805.78;5224699;28;20292;-82
2023/02/07 06:14:16;;;;;;;19.10;14.77;;;-3.50;99.90;;;-3.10;88.28;99805.78;5227745;28;20237;-84
2023/02/07 06:16:49;;;;;;;14.17;12.47;;;-3.50;99.90;;;-3.08;89.15;99807.81;5228629;28;20224;-83
2023/02/07 06:19:22;;;;;;;13.97;12.47;;;-3.50;99.90;;;-3.11;88.85;99804.88;5225783;28;20296;-84
2023/02/07 06:21:59;;;;;;;15.83;14.00;;;-3.60;99.90;;;-3.10;90.60;99811.69;5225669;28;20292;-84
2023/02/07 06:24:32;;;;;;;14.13;11.93;;;-3.50;99.90;;;-3.12;89.85;99814.66;5220394;28;20663;-83
2023/02/07 06:27:07;;;;;;;14.80;13.17;;;-3.60;99.90;;;-3.11;90.09;99821.50;5216473;28;20715;-84
2023/02/07 06:29:40;;;;;;;17.07;13.50;;;-3.60;99.90;;;-3.05;90.81;99825.75;5222134;28;20292;-82
2023/02/07 06:32:13;;;;;;;14.37;12.73;;;-3.50;99.90;;;-3.05;91.58;99824.84;5225725;28;20658;-84
2023/02/07 06:34:46;;;;;;;13.27;11.87;;;-3.60;99.90;;;-3.04;91.10;99836.66;5219572;28;20206;-84
2023/02/07 06:37:19;;;;;;;13.67;12.23;;;-3.60;99.90;;;-3.08;90.51;99829.44;5221431;28;20201;-84
2023/02/07 06:39:52;;;;;;;15.57;12.83;;;-3.60;99.90;;;-3.14;88.80;99836.06;5226187;28;20648;-84
2023/02/07 06:42:26;;;;;;;14.90;13.40;;;-3.60;99.90;;;-3.15;88.40;99839.22;5216784;28;20239;-85
2023/02/07 06:44:59;;;;;;;14.13;12.67;;;-3.60;99.90;;;-3.14;90.08;99841.06;5224004;28;20200;-84
2023/02/07 06:47:33;;;;;;;16.03;14.30;;;-3.60;99.90;;;-3.10;90.86;99845.78;5225482;28;20292;-84
2023/02/07 06:50:06;;;;;;;16.83;14.77;;;-3.50;99.90;;;-3.03;91.68;99838.50;5223585;28;20217;-84
2023/02/07 06:52:41;;;;;;;15.10;13.27;;;-3.50;99.90;;;-2.99;90.80;99835.72;5217474;28;20228;-84
2023/02/07 06:55:14;;;;;;;15.50;13.90;;;-3.50;99.90;;;-2.98;91.64;99838.41;5218929;28;20666;-83
2023/02/07 06:57:48;;;;;;;15.53;13.63;;;-3.50;99.90;;;-3.04;91.51;99837.56;5217567;28;20572;-84
2023/02/07 07:00:22;;;;;;;16.43;14.27;;;-3.50;99.90;;;-3.05;91.17;99844.84;5220818;28;20207;-84
2023/02/07 07:02:55;;;;;;;15.20;13.60;;;-3.50;99.90;;;-3.07;91.20;99846.22;5225187;28;20221;-84
2023/02/07 07:05:29;;;;;;;16.60;13.37;;;-3.60;99.90;;;-3.02;91.50;99843.69;5220252;28;20209;-83
2023/02/07 07:08:02;;;;;;;16.63;14.63;;;-3.50;99.90;;;-3.01;91.38;99847.09;5223082;28;20209;-84
2023/02/07 07:10:35;;;;;;;17.23;15.03;;;-3.50;99.90;;;-2.97;91.82;99852.75;5223044;28;20217;-85
2023/02/07 07:13:10;;;;;;;16.60;13.80;;;-3.50;99.90;;;-3.03;88.82;99863.50;5222620;28;20229;-84
2023/02/07 07:15:43;;;;;;;14.67;13.17;;;-3.50;99.90;;;-2.76;88.84;99864.84;5218967;28;20225;-84
2023/02/07 07:18:16;;;;;;;17.60;15.90;;;-3.30;99.90;;;-2.67;89.83;99861.84;5225728;28;20219;-85
2023/02/07 07:20:53;;;;;;;16.30;14.40;;;-3.20;99.90;;;-2.47;88.91;99860.50;5226532;28;20216;-84
2023/02/07 07:23:26;;;;;;;16.50;14.77;;;-3.10;99.90;;;-2.33;89.56;99858.31;5221392;28;20303;-84
2023/02/07 07:25:59;;;;;;;16.30;14.57;;;-3.00;99.90;;;-2.21;90.11;99858.22;5226856;28;20216;-83
2023/02/07 07:28:33;;;;;;;19.73;15.30;;;-2.90;99.90;;;-2.11;88.15;99843.78;5223191;28;20231;-84
2023/02/07 07:31:08;;;;;;;16.53;14.80;;;-2.70;99.90;;;-1.99;88.21;99847.94;5221048;28;20227;-84
2023/02/07 07:33:41;;;;;;;16.53;14.83;;;-2.70;99.90;;;-1.88;88.61;99842.81;5218475;28;20232;-83
2023/02/07 07:36:15;;;;;;;17.77;15.70;;;-2.60;99.90;;;-1.70;88.79;99846.00;5219499;28;20225;-85
2023/02/07 07:38:48;;;;;;;16.13;14.33;;;-2.40;99.90;;;-1.63;86.23;99846.13;5227416;28;20215;-83
2023/02/07 07:41:22;;;;;;;15.20;13.70;;;-2.30;99.90;;;-1.69;83.83;99841.22;5227788;28;20201;-85
2023/02/07 07:43:57;;;;;;;15.40;13.80;;;-2.20;99.90;;;-1.42;83.53;99839.03;5217943;28;20231;-86
2023/02/07 07:46:30;;;;;;;15.33;13.83;;;-2.10;99.90;;;-1.31;84.63;99847.09;5223103;28;20204;-85
2023/02/07 07:49:03;;;;;;;14.80;13.30;;;-1.90;99.90;;;-1.30;82.63;99839.75;5225484;28;20459;-85
2023/02/07 07:51:36;;;;;;;15.70;14.07;;;-1.80;99.90;;;-1.17;80.61;99843.22;5221583;28;20234;-84
2023/02/07 07:54:09;;;;;;;16.03;14.53;;;-1.70;99.90;;;-1.29;80.59;99840.66;5220803;28;20253;-85
2023/02/07 07:56:42;;;;;;;15.50;13.90;;;-1.70;99.90;;;-1.00;79.21;99840.47;5220838;28;20197;-84
2023/02/07 07:59:17;;;;;;;16.30;14.67;;;-1.50;99.90;;;-0.88;81.15;99827.75;5221488;28;20288;-85
2023/02/07 08:01:56;;;;;;;15.10;13.60;;;-1.40;99.90;;;-0.93;78.28;99844.69;5223674;28;20261;-85
2023/02/07 08:04:29;;;;;;;15.77;14.17;;;-1.30;99.90;;;-1.04;77.64;99845.75;5219111;28;20233;-85
2023/02/07 08:07:02;;;;;;;16.67;14.87;;;-1.40;99.90;;;-0.96;78.34;99855.22;5222304;28;20212;-85
2023/02/07 08:09:35;;;;;;;16.30;14.70;;;-1.40;99.90;;;-0.74;78.45;99860.59;5217229;28;20675;-83
2023/02/07 08:12:08;;;;;;;15.43;13.77;;;-1.20;99.90;;;-0.50;77.33;99860.41;5223927;28;20262;-84
2023/02/07 08:14:43;;;;;;;16.17;14.47;;;-1.00;99.90;;;-0.38;78.02;99853.59;5224284;28;20211;-83
2023/02/07 08:17:16;;;;;;;16.10;14.50;;;-0.80;99.90;;;-0.17;79.24;99863.94;5216214;28;20609;-83
2023/02/07 08:19:49;;;;;;;16.70;15.07;;;-0.60;99.90;;;0.09;78.39;99863.91;5214474;28;20307;-84
2023/02/07 08:22:22;;;;;;;16.87;15.00;;;-0.40;99.90;;;0.29;77.05;99874.94;5222115;28;20220;-83
2023/02/07 08:24:55;;;;;;;17.17;15.57;;;-0.30;99.90;;;0.10;74.23;99875.78;5225555;28;20271;-85
2023/02/07 08:27:28;;;;;;;16.03;14.50;;;-0.40;99.90;;;0.01;74.87;99879.63;5221740;28;20756;-83
2023/02/07 08:30:03;;;;;;;15.17;13.67;;;-0.40;99.90;;;-0.22;74.92;99890.06;5220223;28;20650;-84
2023/02/07 08:32:38;;;;;;;15.57;13.97;;;-0.50;99.90;;;0.02;72.77;99891.47;5221007;28;20249;-83
2023/02/07 08:35:11;;;;;;;15.90;14.30;;;-0.40;99.90;;;0.38;72.80;99893.72;5228131;28;20201;-83
2023/02/07 08:37:44;;;;;;;15.30;13.63;;;-0.10;99.90;;;-0.16;73.63;99900.94;5227546;28;20806;-83
2023/02/07 08:40:18;;;;;;;14.40;13.00;;;-0.30;99.90;;;0.34;74.61;99904.06;5221915;28;20214;-85
2023/02/07 08:42:51;;;;;;;15.43;13.83;;;0.00;99.90;;;0.36;73.77;99901.78;5216747;28;20241;-85
2023/02/07 08:45:26;;;;;;;15.87;14.23;;;0.10;99.90;;;0.51;73.33;99902.84;5225681;28;20734;-85
2023/02/07 08:47:59;;;;;;;17.13;14.00;;;0.20;99.90;;;0.77;73.85;99897.00;5223647;28;20246;-83
2023/02/07 08:50:32;;;;;;;16.53;14.13;;;0.40;99.90;;;0.82;73.93;99902.63;5219471;28;20248;-85
2023/02/07 08:53:05;;;;;;;16.23;14.60;;;0.40;99.90;;;0.84;73.25;99902.13;5229193;28;20231;-85
2023/02/07 08:55:41;;;;;;;15.50;14.00;;;0.50;99.90;;;0.79;72.57;99899.72;5231893;28;20229;-85
2023/02/07 08:58:14;;;;;;;16.07;14.47;;;0.30;99.90;;;0.78;71.63;99891.28;5222489;28;20234;-85
2023/02/07 09:00:49;;;;;;;15.00;13.57;;;0.40;99.90;;;0.95;73.00;99890.03;5216773;28;20208;-86
2023/02/07 09:03:22;;;;;;;15.67;14.17;;;0.40;99.90;;;0.76;70.25;99885.16;5230681;28;20220;-84
2023/02/07 09:05:58;;;;;;;15.97;14.37;;;0.40;99.90;;;0.76;68.54;99892.69;5227085;28;20211;-84
2023/02/07 09:08:32;;;;;;;16.47;14.87;;;0.50;99.90;;;0.55;70.15;99888.34;5216283;28;20632;-83
2023/02/07 09:11:05;;;;;;;15.60;14.10;;;0.20;99.90;;;0.48;71.58;99884.84;5217563;28;20228;-83
2023/02/07 09:13:44;;;;;;;16.00;14.40;;;0.20;99.90;;;0.65;70.44;99891.31;5219868;28;20455;-81
2023/02/07 09:16:18;;;;;;;15.23;13.70;;;0.30;99.90;;;0.77;70.80;99889.44;5221557;28;20235;-83
2023/02/07 09:18:52;;;;;;;16.23;14.27;;;0.40;99.90;;;0.74;70.56;99894.09;5219153;28;20723;-82
2023/02/07 09:21:25;;;;;;;16.87;15.00;;;0.40;99.90;;;0.96;69.38;99891.81;5225446;28;20235;-82
2023/02/07 09:23:58;;;;;;;15.13;13.63;;;0.60;99.90;;;1.11;67.09;99889.59;5224831;28;20728;-82
2023/02/07 09:26:33;;;;;;;16.07;14.40;;;0.70;99.90;;;0.97;68.70;99884.44;5226671;28;20206;-82
2023/02/07 09:29:09;;;;;;;15.67;14.13;;;0.70;99.90;;;1.21;67.96;99885.75;5223403;28;20211;-82
2023/02/07 09:31:44;;;;;;;15.77;14.17;;;0.80;99.90;;;0.71;68.85;99896.22;5216888;28;20307;-83
2023/02/07 09:34:18;;;;;;;16.83;15.10;;;0.60;99.90;;;0.83;70.50;99906.94;5219841;28;20224;-83
2023/02/07 09:36:51;;;;;;;15.53;14.17;;;0.50;99.90;;;0.95;70.33;99900.97;5220479;28;20305;-81
2023/02/07 09:39:25;;;;;;;17.27;15.47;;;0.60;99.90;;;1.12;67.65;99895.56;5227276;28;20718;-83
2023/02/07 09:42:11;;;;;;;16.67;14.23;;;0.80;99.90;;;1.29;69.53;99888.53;5222963;28;20204;-83
2023/02/07 09:44:55;;;;;;;16.50;14.77;;;0.90;99.90;;;1.34;67.76;99891.59;5218063;28;20693;-83
2023/02/07 09:47:32;;;;;;;16.67;15.00;;;1.00;99.90;;;1.07;66.27;99891.56;5224372;28;20231;-83
2023/02/07 09:50:12;;;;;;;16.07;14.43;;;0.90;99.90;;;0.99;69.28;99892.19;5226553;28;20201;-83
2023/02/07 09:52:49;;;;;;;14.97;13.57;;;0.70;99.90;;;1.62;68.19;99895.03;5222786;28;20283;-82
2023/02/07 09:55:26;;;;;;;15.63;14.03;;;1.20;99.90;;;1.86;68.33;99892.13;5220026;28;20573;-83
2023/02/07 09:58:07;;;;;;;16.67;14.97;;;1.40;99.90;;;1.64;66.43;99897.06;5218702;28;20228;-82
2023/02/07 10:00:42;;;;;;;15.97;14.20;;;1.30;99.90;;;1.62;67.89;99893.44;5222800;28;20203;-83
2023/02/07 10:03:20;;;;;;;19.07;15.33;;;1.20;99.90;;;1.90;66.50;99891.81;5224429;28;20673;-82
2023/02/07 10:05:59;;;;;;;15.97;14.47;;;1.40;99.90;;;1.95;66.92;99890.75;5223412;28;20206;-82
2023/02/07 10:08:54;;;;;;;16.70;15.00;;;1.40;99.90;;;2.09;67.21;99888.31;5213953;28;20678;-83
2023/02/07 10:11:42;;;;;;;16.17;14.63;;;1.70;99.90;;;2.30;62.90;99906.78;5225328;28;20221;-82
2023/02/07 10:14:37;;;;;;;15.67;14.17;;;1.90;99.90;;;2.18;64.39;99899.53;5221582;28;20225;-82
2023/02/07 10:17:33;;;;;;;15.93;13.83;;;1.90;99.90;;;2.12;66.07;99892.81;5224641;28;20220;-82
2023/02/07 10:20:28;;;;;;;15.40;14.00;;;1.80;99.90;;;2.07;63.79;99899.81;5230514;28;20248;-82
2023/02/07 10:23:22;;;;;;;14.17;12.87;;;1.60;99.90;;;2.30;65.09;99896.69;5223360;28;20221;-82
2023/02/07 10:26:08;;;;;;;15.70;14.00;;;1.80;99.90;;;2.29;64.48;99899.91;5220976;28;20289;-82
2023/02/07 10:29:06;;;;;;;14.97;13.37;;;1.90;99.90;;;2.51;64.05;99893.34;5227236;28;20200;-82
2023/02/07 10:31:47;;;;;;;14.77;13.27;;;2.00;99.90;;;2.38;63.66;99888.44;5223885;28;20694;-82
2023/02/07 10:34:24;;;;;;;15.67;13.07;;;2.00;99.90;;;2.34;62.79;99891.28;5217057;28;20705;-81
2023/02/07 10:36:58;;;;;;;14.43;12.70;;;2.00;99.90;;;2.46;61.98;99892.78;5224688;28;20220;-81
2023/02/07 10:39:37;;;;;;;14.70;13.20;;;2.10;99.90;;;2.19;62.30;99892.84;5226148;28;20206;-82
2023/02/07 10:42:15;;;;;;;14.07;12.53;;;2.00;99.90;;;2.21;62.24;99893.94;5226128;28;20248;-82
2023/02/07 10:44:48;;;;;;;14.53;13.13;;;1.90;99.90;;;2.16;61.66;99898.44;5220725;28;20198;-82
2023/02/07 10:47:22;;;;;;;13.50;12.20;;;1.90;99.90;;;2.10;61.36;99887.59;5220186;28;20197;-81